createdAt,value
2022-12-14T00:01:27.530Z,59.82
2022-12-14T00:03:54.647Z,60.09
2022-12-14T00:06:28.558Z,60.43
2022-12-14T00:08:57.018Z,60.02
2022-12-14T00:11:23.785Z,60.41
2022-12-14T00:13:54.296Z,59.95
2022-12-14T00:16:21.787Z,60.08
2022-12-14T00:18:52.526Z,59.80
2022-12-14T00:21:24.327Z,59.76
2022-12-14T00:23:51.262Z,59.61
2022-12-14T00:26:19.196Z,59.59
2022-12-14T00:28:49.430Z,59.59
2022-12-14T00:31:16.210Z,59.61
2022-12-14T00:33:42.842Z,59.57
2022-12-14T00:36:10.124Z,59.67
2022-12-14T00:38:39.583Z,59.70
2022-12-14T00:41:08.272Z,59.33
2022-12-14T00:43:37.294Z,59.57
2022-12-14T00:46:07.099Z,59.50
2022-12-14T00:48:36.027Z,59.08
2022-12-14T00:51:02.798Z,59.15
2022-12-14T00:53:29.363Z,58.67
2022-12-14T00:55:55.944Z,58.55
2022-12-14T00:58:23.513Z,58.31
2022-12-14T01:01:00.283Z,58.45
2022-12-14T01:03:27.400Z,58.29
2022-12-14T01:05:54.411Z,58.45
2022-12-14T01:08:21.222Z,58.01
2022-12-14T01:10:52.246Z,58.28
2022-12-14T01:13:18.933Z,58.48
2022-12-14T01:15:45.653Z,58.76
2022-12-14T01:18:15.104Z,58.51
2022-12-14T01:20:46.248Z,58.80
2022-12-14T01:23:12.884Z,58.68
2022-12-14T01:25:39.491Z,58.14
2022-12-14T01:28:06.065Z,58.62
2022-12-14T01:30:32.932Z,58.41
2022-12-14T01:33:00.833Z,58.29
2022-12-14T01:35:27.411Z,58.50
2022-12-14T01:37:55.667Z,58.91
2022-12-14T01:40:22.337Z,58.78
2022-12-14T01:42:48.962Z,59.05
2022-12-14T01:45:22.259Z,59.10
2022-12-14T01:47:51.772Z,58.73
2022-12-14T01:50:27.474Z,58.83
2022-12-14T01:52:59.025Z,58.69
2022-12-14T01:55:40.626Z,58.43
2022-12-14T01:58:10.461Z,58.54
2022-12-14T02:00:37.284Z,58.60
2022-12-14T02:03:25.557Z,58.42
2022-12-14T02:05:55.505Z,58.47
2022-12-14T02:08:24.435Z,58.78
2022-12-14T02:10:53.762Z,59.03
2022-12-14T02:13:32.498Z,58.79
2022-12-14T02:16:01.569Z,58.80
2022-12-14T02:18:31.723Z,59.24
2022-12-14T02:21:07.708Z,59.09
2022-12-14T02:23:46.529Z,59.05
2022-12-14T02:26:13.098Z,59.10
2022-12-14T02:28:48.113Z,59.86
2022-12-14T02:31:20.152Z,59.94
2022-12-14T02:33:49.338Z,60.43
2022-12-14T02:36:26.570Z,60.54
2022-12-14T02:39:10.093Z,60.27
2022-12-14T02:41:45.851Z,59.91
2022-12-14T02:44:18.328Z,59.63
2022-12-14T02:46:51.159Z,60.04
2022-12-14T02:49:26.829Z,60.21
2022-12-14T02:51:53.311Z,60.08
2022-12-14T02:54:32.616Z,60.39
2022-12-14T02:57:14.021Z,59.88
2022-12-14T02:59:40.838Z,59.90
2022-12-14T03:02:07.876Z,59.97
2022-12-14T03:04:45.730Z,60.21
2022-12-14T03:07:27.730Z,59.98
2022-12-14T03:09:54.411Z,60.11
2022-12-14T03:12:21.270Z,59.61
2022-12-14T03:14:50.751Z,59.76
2022-12-14T03:17:19.841Z,59.53
2022-12-14T03:19:49.137Z,59.80
2022-12-14T03:22:21.082Z,59.58
2022-12-14T03:24:49.521Z,59.81
2022-12-14T03:27:20.664Z,59.84
2022-12-14T03:29:52.396Z,60.20
2022-12-14T03:32:25.430Z,59.78
2022-12-14T03:34:53.502Z,59.75
2022-12-14T03:37:34.349Z,59.80
2022-12-14T03:40:00.982Z,59.72
2022-12-14T03:42:33.433Z,59.85
2022-12-14T03:45:18.711Z,59.71
2022-12-14T03:47:48.281Z,59.77
2022-12-14T03:50:22.394Z,59.81
2022-12-14T03:53:00.544Z,59.65
2022-12-14T03:55:30.150Z,59.35
2022-12-14T03:58:17.963Z,59.63
2022-12-14T04:01:04.830Z,59.44
2022-12-14T04:03:31.650Z,60.23
2022-12-14T04:06:02.771Z,60.65
2022-12-14T04:08:37.946Z,60.32
2022-12-14T04:11:23.690Z,60.27
2022-12-14T04:14:16.826Z,59.99
2022-12-14T04:17:04.662Z,60.73
2022-12-14T04:19:45.804Z,60.48
2022-12-14T04:22:19.842Z,60.34
2022-12-14T04:25:17.223Z,60.87
2022-12-14T04:27:48.276Z,60.62
2022-12-14T04:30:17.162Z,60.42
2022-12-14T04:32:51.560Z,60.71
2022-12-14T04:35:21.342Z,60.70
2022-12-14T04:37:50.834Z,60.33
2022-12-14T04:40:27.510Z,60.24
2022-12-14T04:42:55.427Z,60.65
2022-12-14T04:45:23.807Z,60.61
2022-12-14T04:48:00.608Z,60.55
2022-12-14T04:50:28.951Z,60.58
2022-12-14T04:53:01.212Z,60.36
2022-12-14T04:55:31.282Z,60.71
2022-12-14T05:03:59.582Z,60.16
2022-12-14T05:10:45.028Z,60.32
2022-12-14T05:13:15.216Z,59.91
2022-12-14T05:16:02.003Z,59.92
2022-12-14T05:18:28.995Z,59.85
2022-12-14T05:20:55.628Z,59.54
2022-12-14T05:23:22.215Z,59.35
2022-12-14T05:25:49.040Z,59.32
2022-12-14T05:28:19.665Z,59.25
2022-12-14T05:30:48.887Z,58.99
2022-12-14T05:33:21.290Z,58.71
2022-12-14T05:35:47.920Z,58.75
2022-12-14T05:38:16.887Z,58.51
2022-12-14T05:40:43.439Z,58.78
2022-12-14T05:43:11.216Z,58.74
2022-12-14T05:45:40.277Z,58.38
2022-12-14T05:48:06.916Z,58.40
2022-12-14T05:50:33.429Z,58.08
2022-12-14T05:52:59.987Z,58.22
2022-12-14T05:55:28.834Z,58.16
2022-12-14T05:58:00.767Z,57.81
2022-12-14T06:00:27.352Z,58.27
2022-12-14T06:02:55.587Z,57.99
2022-12-14T06:05:22.232Z,58.10
2022-12-14T06:07:48.766Z,58.21
2022-12-14T06:10:20.692Z,57.53
2022-12-14T06:12:49.783Z,58.25
2022-12-14T06:15:18.760Z,57.83
2022-12-14T06:17:45.731Z,57.96
2022-12-14T06:20:22.264Z,57.45
2022-12-14T06:22:51.933Z,58.04
2022-12-14T06:25:18.527Z,57.67
2022-12-14T06:27:47.420Z,57.68
2022-12-14T06:30:16.767Z,57.55
2022-12-14T06:32:43.305Z,57.38
2022-12-14T06:35:09.980Z,57.47
2022-12-14T06:37:41.167Z,57.60
2022-12-14T06:40:08.018Z,57.45
2022-12-14T06:42:34.590Z,57.71
2022-12-14T06:45:03.309Z,57.57
2022-12-14T06:47:29.918Z,57.23
2022-12-14T06:49:58.777Z,57.24
2022-12-14T06:52:27.111Z,57.44
2022-12-14T06:54:54.142Z,57.19
2022-12-14T06:57:20.697Z,57.36
2022-12-14T06:59:47.325Z,57.19
2022-12-14T07:02:17.662Z,57.14
2022-12-14T07:04:44.846Z,56.96
2022-12-14T07:07:11.536Z,57.14
2022-12-14T07:09:38.427Z,57.13
2022-12-14T07:12:05.044Z,57.22
2022-12-14T07:14:32.633Z,57.31
2022-12-14T07:16:59.747Z,56.99
2022-12-14T07:19:26.387Z,56.57
2022-12-14T07:21:52.974Z,56.81
2022-12-14T07:24:19.738Z,56.67
2022-12-14T07:26:46.701Z,56.79
2022-12-14T07:29:16.904Z,56.77
2022-12-14T07:31:49.418Z,56.94
2022-12-14T07:34:18.695Z,56.55
2022-12-14T07:36:45.881Z,56.48
2022-12-14T07:39:18.555Z,56.43
2022-12-14T07:41:47.093Z,56.54
2022-12-14T07:44:20.457Z,56.26
2022-12-14T07:46:47.550Z,56.40
2022-12-14T07:49:14.619Z,56.46
2022-12-14T07:51:42.136Z,56.14
2022-12-14T07:54:08.702Z,56.03
2022-12-14T07:56:36.253Z,56.18
2022-12-14T07:59:04.619Z,55.74
2022-12-14T08:01:34.635Z,56.00
2022-12-14T08:04:08.819Z,55.68
2022-12-14T08:06:35.730Z,55.89
2022-12-14T08:09:02.847Z,55.34
2022-12-14T08:11:30.058Z,55.74
2022-12-14T08:13:59.933Z,55.64
2022-12-14T08:16:26.683Z,55.64
2022-12-14T08:18:56.205Z,55.41
2022-12-14T08:21:22.929Z,55.13
2022-12-14T08:23:49.962Z,55.42
2022-12-14T08:26:16.678Z,55.48
2022-12-14T08:28:43.351Z,55.11
2022-12-14T08:31:14.729Z,54.97
2022-12-14T08:33:41.666Z,54.53
2022-12-14T08:36:10.658Z,54.92
2022-12-14T08:38:37.481Z,54.02
2022-12-14T08:41:08.022Z,54.46
2022-12-14T08:43:34.990Z,54.46
2022-12-14T08:46:01.682Z,54.08
2022-12-14T08:48:28.380Z,54.13
2022-12-14T08:50:55.212Z,53.84
2022-12-14T08:53:21.814Z,53.93
2022-12-14T08:55:48.476Z,54.06
2022-12-14T08:58:15.242Z,53.95
2022-12-14T09:00:42.001Z,54.02
2022-12-14T09:03:08.832Z,53.93
2022-12-14T09:05:35.515Z,54.03
2022-12-14T09:08:04.526Z,53.51
2022-12-14T09:10:31.247Z,53.36
2022-12-14T09:12:58.807Z,53.43
2022-12-14T09:15:27.899Z,53.66
2022-12-14T09:17:54.483Z,52.73
2022-12-14T09:20:23.722Z,53.25
2022-12-14T09:22:51.305Z,53.28
2022-12-14T09:25:20.417Z,52.76
2022-12-14T09:27:46.980Z,52.86
2022-12-14T09:30:14.073Z,52.78
2022-12-14T09:32:41.208Z,52.63
2022-12-14T09:35:10.261Z,52.46
2022-12-14T09:37:38.261Z,52.18
2022-12-14T09:40:09.325Z,52.32
2022-12-14T09:42:35.957Z,52.54
2022-12-14T09:45:06.020Z,52.63
2022-12-14T09:47:37.707Z,52.55
2022-12-14T09:50:10.354Z,52.60
2022-12-14T09:52:40.371Z,52.85
2022-12-14T09:55:26.320Z,52.38
2022-12-14T09:58:13.163Z,52.73
2022-12-14T10:00:51.475Z,52.13
2022-12-14T10:03:28.257Z,52.14
2022-12-14T10:05:55.189Z,52.16
2022-12-14T10:08:32.364Z,52.22
2022-12-14T10:11:07.376Z,51.86
2022-12-14T10:13:43.225Z,52.02
2022-12-14T10:16:12.788Z,52.07
2022-12-14T10:19:02.023Z,51.73
2022-12-14T10:21:39.495Z,51.88
2022-12-14T10:24:06.283Z,51.87
2022-12-14T10:26:35.970Z,51.72
2022-12-14T10:29:11.599Z,51.79
2022-12-14T10:31:44.834Z,51.69
2022-12-14T10:34:22.303Z,51.27
2022-12-14T10:36:54.622Z,51.69
2022-12-14T10:39:34.217Z,51.90
2022-12-14T10:42:07.983Z,52.01
2022-12-14T10:44:43.030Z,51.64
2022-12-14T10:47:28.178Z,51.48
2022-12-14T10:49:57.782Z,51.34
2022-12-14T10:52:25.867Z,51.14
2022-12-14T10:55:11.069Z,51.07
2022-12-14T10:57:37.721Z,51.33
2022-12-14T11:00:10.315Z,51.37
2022-12-14T11:02:39.216Z,51.06
2022-12-14T11:05:14.828Z,50.73
2022-12-14T11:07:43.371Z,50.92
2022-12-14T11:10:20.742Z,51.10
2022-12-14T11:13:00.687Z,50.90
2022-12-14T11:15:43.667Z,51.00
2022-12-14T11:18:16.651Z,51.26
2022-12-14T11:20:53.618Z,51.17
2022-12-14T11:23:25.369Z,50.35
2022-12-14T11:26:01.361Z,50.29
2022-12-14T11:28:35.961Z,50.65
2022-12-14T11:31:09.894Z,50.57
2022-12-14T11:33:50.119Z,50.77
2022-12-14T11:36:28.765Z,50.85
2022-12-14T11:39:13.635Z,50.82
2022-12-14T11:41:47.777Z,50.84
2022-12-14T11:44:14.450Z,51.10
2022-12-14T11:46:59.765Z,51.21
2022-12-14T11:49:31.368Z,51.06
2022-12-14T11:52:12.057Z,50.58
2022-12-14T11:54:42.599Z,50.72
2022-12-14T11:57:20.015Z,51.17
2022-12-14T11:59:46.672Z,50.83
2022-12-14T12:02:18.527Z,51.12
2022-12-14T12:04:46.282Z,50.89
2022-12-14T12:07:39.508Z,51.17
2022-12-14T12:10:08.557Z,51.11
2022-12-14T12:12:36.438Z,51.47
2022-12-14T12:15:05.457Z,51.04
2022-12-14T12:17:39.984Z,51.02
2022-12-14T12:20:29.874Z,51.00
2022-12-14T12:22:59.102Z,51.17
2022-12-14T12:25:29.668Z,51.15
2022-12-14T12:28:04.330Z,50.79
2022-12-14T12:30:34.365Z,51.02
2022-12-14T12:33:05.925Z,51.04
2022-12-14T12:35:46.497Z,50.71
2022-12-14T12:38:40.255Z,50.81
2022-12-14T12:41:13.335Z,50.67
2022-12-14T12:43:50.007Z,50.76
2022-12-14T12:46:19.981Z,50.57
2022-12-14T12:48:48.511Z,50.33
2022-12-14T12:51:19.020Z,50.42
2022-12-14T12:53:46.036Z,50.49
2022-12-14T12:56:35.747Z,50.02
2022-12-14T12:59:02.516Z,49.98
2022-12-14T13:01:34.943Z,50.37
2022-12-14T13:04:02.856Z,50.27
2022-12-14T13:06:49.046Z,49.95
2022-12-14T13:09:36.012Z,50.32
2022-12-14T13:12:02.891Z,50.06
2022-12-14T13:14:31.933Z,50.09
2022-12-14T13:17:01.704Z,50.27
2022-12-14T13:19:54.558Z,50.30
2022-12-14T13:22:26.102Z,49.83
2022-12-14T13:24:59.012Z,49.89
2022-12-14T13:27:40.683Z,49.85
2022-12-14T13:30:31.942Z,50.15
2022-12-14T13:33:19.820Z,50.00
2022-12-14T13:35:52.184Z,50.02
2022-12-14T13:38:32.980Z,50.18
2022-12-14T13:41:19.648Z,49.96
2022-12-14T13:43:49.259Z,49.59
2022-12-14T13:46:21.279Z,49.87
2022-12-14T13:48:48.559Z,49.87
2022-12-14T13:51:41.674Z,49.89
2022-12-14T13:54:18.089Z,49.95
2022-12-14T13:56:47.096Z,50.03
2022-12-14T13:59:30.422Z,50.16
2022-12-14T14:02:02.092Z,50.18
2022-12-14T14:04:35.818Z,50.42
2022-12-14T14:07:24.198Z,50.69
2022-12-14T14:09:53.888Z,50.77
2022-12-14T14:12:25.896Z,50.48
2022-12-14T14:14:55.228Z,50.76
2022-12-14T14:17:21.747Z,50.98
2022-12-14T14:19:51.002Z,51.00
2022-12-14T14:22:25.528Z,51.20
2022-12-14T14:24:56.371Z,51.27
2022-12-14T14:27:30.166Z,51.51
2022-12-14T14:29:59.164Z,50.88
2022-12-14T14:32:35.274Z,51.29
2022-12-14T14:35:03.553Z,51.58
2022-12-14T14:37:33.092Z,51.30
2022-12-14T14:40:21.933Z,51.45
2022-12-14T14:43:06.119Z,51.44
2022-12-14T14:45:37.169Z,51.91
2022-12-14T14:48:18.712Z,51.95
2022-12-14T14:50:48.546Z,51.86
2022-12-14T14:53:18.174Z,52.00
2022-12-14T14:55:53.954Z,52.20
2022-12-14T14:58:27.290Z,52.12
2022-12-14T15:01:06.472Z,51.81
2022-12-14T15:03:42.143Z,51.96
2022-12-14T15:06:16.444Z,52.21
2022-12-14T15:08:44.798Z,52.24
2022-12-14T15:11:13.685Z,52.58
2022-12-14T15:14:02.697Z,52.50
2022-12-14T15:16:42.736Z,52.46
2022-12-14T15:19:36.872Z,52.39
2022-12-14T15:22:04.531Z,52.47
2022-12-14T15:24:35.474Z,52.69
2022-12-14T15:27:08.787Z,52.74
2022-12-14T15:29:35.340Z,52.81
2022-12-14T15:32:04.136Z,52.96
2022-12-14T15:34:33.377Z,52.90
2022-12-14T15:36:59.896Z,53.00
2022-12-14T15:39:29.382Z,53.07
2022-12-14T15:42:03.194Z,53.10
2022-12-14T15:44:29.902Z,53.11
2022-12-14T15:47:01.073Z,53.12
2022-12-14T15:49:30.250Z,53.58
2022-12-14T15:51:57.256Z,53.55
2022-12-14T15:54:24.351Z,53.74
2022-12-14T15:56:53.752Z,53.36
2022-12-14T15:59:21.409Z,53.12
2022-12-14T16:01:54.343Z,53.21
2022-12-14T16:04:27.666Z,53.50
2022-12-14T16:07:04.465Z,53.61
2022-12-14T16:09:36.375Z,53.66
2022-12-14T16:12:13.874Z,53.71
2022-12-14T16:14:46.187Z,53.91
2022-12-14T16:17:17.186Z,54.05
2022-12-14T16:19:59.455Z,53.82
2022-12-14T16:22:32.132Z,54.00
2022-12-14T16:25:17.080Z,53.71
2022-12-14T16:27:52.429Z,53.60
2022-12-14T16:30:30.008Z,53.90
2022-12-14T16:33:07.054Z,53.62
2022-12-14T16:35:35.295Z,53.48
2022-12-14T16:38:08.458Z,53.60
2022-12-14T16:40:55.207Z,53.84
2022-12-14T16:43:42.118Z,53.46
2022-12-14T16:46:10.660Z,53.92
2022-12-14T16:48:44.593Z,53.85
2022-12-14T16:51:38.017Z,53.85
2022-12-14T16:54:23.422Z,53.68
2022-12-14T16:56:50.327Z,54.12
2022-12-14T16:59:39.538Z,53.97
2022-12-14T17:02:06.256Z,53.87
2022-12-14T17:04:34.625Z,53.66
2022-12-14T17:07:04.276Z,53.98
2022-12-14T17:09:40.105Z,53.82
2022-12-14T17:12:11.568Z,53.66
2022-12-14T17:14:47.523Z,53.52
2022-12-14T17:17:17.239Z,53.56
2022-12-14T17:19:46.152Z,53.37
2022-12-14T17:22:17.511Z,53.42
2022-12-14T17:24:47.787Z,53.21
2022-12-14T17:27:18.473Z,53.01
2022-12-14T17:29:47.794Z,53.54
2022-12-14T17:32:15.257Z,53.34
2022-12-14T17:34:42.428Z,53.58
2022-12-14T17:37:20.035Z,53.48
2022-12-14T17:39:46.729Z,53.40
2022-12-14T17:42:18.291Z,53.65
2022-12-14T17:45:03.073Z,53.52
2022-12-14T17:47:30.240Z,53.67
2022-12-14T17:49:57.040Z,53.81
2022-12-14T17:52:28.738Z,54.01
2022-12-14T17:54:55.332Z,53.96
2022-12-14T17:57:24.968Z,53.75
2022-12-14T18:00:14.488Z,53.83
2022-12-14T18:02:42.289Z,53.55
2022-12-14T18:05:14.777Z,53.51
2022-12-14T18:07:41.951Z,53.64
2022-12-14T18:10:09.340Z,53.57
2022-12-14T18:12:36.152Z,53.46
2022-12-14T18:15:02.762Z,53.56
2022-12-14T18:17:29.574Z,53.66
2022-12-14T18:19:56.120Z,53.21
2022-12-14T18:22:24.748Z,53.43
2022-12-14T18:24:51.333Z,53.35
2022-12-14T18:27:21.010Z,53.08
2022-12-14T18:29:47.582Z,53.20
2022-12-14T18:32:14.900Z,52.96
2022-12-14T18:34:41.673Z,53.15
2022-12-14T18:37:08.661Z,53.34
2022-12-14T18:39:35.796Z,53.33
2022-12-14T18:42:05.334Z,53.25
2022-12-14T18:44:32.071Z,53.52
2022-12-14T18:47:09.943Z,53.23
2022-12-14T18:49:46.386Z,53.35
2022-12-14T18:52:13.085Z,53.55
2022-12-14T18:54:42.185Z,53.57
2022-12-14T18:57:11.537Z,53.53
2022-12-14T18:59:42.576Z,53.33
2022-12-14T19:02:13.408Z,53.19
2022-12-14T19:04:40.131Z,53.20
2022-12-14T19:07:10.396Z,53.17
2022-12-14T19:09:37.150Z,53.19
2022-12-14T19:12:03.900Z,53.11
2022-12-14T19:14:30.497Z,53.06
2022-12-14T19:16:57.168Z,53.01
2022-12-14T19:19:40.859Z,53.00
2022-12-14T19:22:10.679Z,53.08
2022-12-14T19:24:39.775Z,53.05
2022-12-14T19:27:06.416Z,53.24
2022-12-14T19:29:41.495Z,52.91
2022-12-14T19:32:10.241Z,53.35
2022-12-14T19:34:36.870Z,53.19
2022-12-14T19:37:03.402Z,53.06
2022-12-14T19:39:30.140Z,53.40
2022-12-14T19:42:01.698Z,53.44
2022-12-14T19:44:33.552Z,52.99
2022-12-14T19:47:00.654Z,53.28
2022-12-14T19:49:32.767Z,53.55
2022-12-14T19:52:03.934Z,53.45
2022-12-14T19:54:36.503Z,53.38
2022-12-14T19:57:05.558Z,53.29
2022-12-14T19:59:32.210Z,53.25
2022-12-14T20:01:58.967Z,53.23
2022-12-14T20:04:30.211Z,53.48
2022-12-14T20:06:59.153Z,53.42
2022-12-14T20:09:25.740Z,53.79
2022-12-14T20:11:56.035Z,53.87
2022-12-14T20:14:25.263Z,53.84
2022-12-14T20:16:52.547Z,53.92
2022-12-14T20:19:19.505Z,53.96
2022-12-14T20:21:46.141Z,53.83
2022-12-14T20:24:15.241Z,53.98
2022-12-14T20:26:41.882Z,54.02
2022-12-14T20:29:13.920Z,54.15
2022-12-14T20:31:55.433Z,54.32
2022-12-14T20:34:22.284Z,54.44
2022-12-14T20:36:51.113Z,54.39
2022-12-14T20:39:20.182Z,54.50
2022-12-14T20:41:52.156Z,54.93
2022-12-14T20:44:18.808Z,54.83
2022-12-14T20:46:45.984Z,54.81
2022-12-14T20:49:15.948Z,55.08
2022-12-14T20:51:43.277Z,55.28
2022-12-14T20:54:14.126Z,55.29
2022-12-14T20:56:41.166Z,55.06
2022-12-14T20:59:08.017Z,55.27
2022-12-14T21:01:35.828Z,55.11
2022-12-14T21:04:03.335Z,55.28
2022-12-14T21:06:30.231Z,55.50
2022-12-14T21:09:09.468Z,55.35
2022-12-14T21:12:01.242Z,55.30
2022-12-14T21:14:29.174Z,55.22
2022-12-14T21:16:58.634Z,55.33
2022-12-14T21:19:25.869Z,55.65
2022-12-14T21:21:54.653Z,55.41
2022-12-14T21:24:52.735Z,55.54
2022-12-14T21:27:16.264Z,55.39
2022-12-14T21:29:45.534Z,55.68
2022-12-14T21:32:12.384Z,55.58
2022-12-14T21:34:39.374Z,55.40
2022-12-14T21:37:10.822Z,55.26
2022-12-14T21:39:40.180Z,55.27
2022-12-14T21:42:13.283Z,55.53
2022-12-14T21:44:44.014Z,55.27
2022-12-14T21:47:11.807Z,54.74
2022-12-14T21:49:42.541Z,55.39
2022-12-14T21:52:12.168Z,55.66
2022-12-14T21:54:39.039Z,55.64
2022-12-14T21:57:24.605Z,56.14
2022-12-14T21:59:51.315Z,56.78
2022-12-14T22:02:22.206Z,56.76
2022-12-14T22:04:56.287Z,56.87
2022-12-14T22:07:26.734Z,56.62
2022-12-14T22:09:53.317Z,56.61
2022-12-14T22:12:22.359Z,56.01
2022-12-14T22:14:50.797Z,56.16
2022-12-14T22:17:19.765Z,56.53
2022-12-14T22:19:46.408Z,56.36
2022-12-14T22:22:14.252Z,56.43
2022-12-14T22:24:41.026Z,56.48
2022-12-14T22:27:07.582Z,56.41
2022-12-14T22:29:37.189Z,56.24
2022-12-14T22:32:04.040Z,56.11
2022-12-14T22:34:33.231Z,55.80
2022-12-14T22:36:59.790Z,55.53
2022-12-14T22:39:26.451Z,55.83
2022-12-14T22:41:55.917Z,55.68
2022-12-14T22:44:26.819Z,55.46
2022-12-14T22:46:53.400Z,55.60
2022-12-14T22:49:20.286Z,55.44
2022-12-14T22:51:50.556Z,55.08
2022-12-14T22:54:18.498Z,55.32
2022-12-14T22:56:46.311Z,55.15
2022-12-14T22:59:12.904Z,54.95
2022-12-14T23:01:39.576Z,54.93
2022-12-14T23:04:06.493Z,55.26
2022-12-14T23:06:33.326Z,54.64
2022-12-14T23:09:18.502Z,55.11
2022-12-14T23:12:05.734Z,55.22
2022-12-14T23:14:53.363Z,55.07
2022-12-14T23:17:38.640Z,55.11
2022-12-14T23:20:26.369Z,55.06
2022-12-14T23:23:14.304Z,55.05
2022-12-14T23:25:59.528Z,55.13
2022-12-14T23:28:49.792Z,54.99
2022-12-14T23:31:35.408Z,55.50
2022-12-14T23:34:20.582Z,55.65
2022-12-14T23:37:07.852Z,55.57
2022-12-14T23:39:55.383Z,55.50
2022-12-14T23:42:40.577Z,55.83
2022-12-14T23:45:25.889Z,56.10
2022-12-14T23:48:11.553Z,56.27
2022-12-14T23:50:56.746Z,56.60
2022-12-14T23:53:41.968Z,56.61
2022-12-14T23:56:27.263Z,56.70
2022-12-14T23:59:14.128Z,56.61
